Time;durP1;ratioP1;P1;durP2;ratioP2;P2;SDS_P1;SDS_P2;PMS_P1;PMS_P2;Temp;Humidity;BMP_temperature;BMP_pressure;BME280_temperature;BME280_humidity;BME280_pressure;Samples;Min_cycle;Max_cycle;Signal;HPM_P1;HPM_P2
2022/05/21 00:02:11;;;;;;;3.70;1.40;;;;;;;22.89;45.05;101904.41;5009863;28;20034;-61
2022/05/21 00:04:41;;;;;;;3.30;1.50;;;;;;;22.90;44.46;101906.06;5030275;28;20041;-60
2022/05/21 00:07:07;;;;;;;3.45;1.52;;;;;;;22.90;44.78;101905.25;5052550;28;20052;-61
2022/05/21 00:09:32;;;;;;;3.60;1.70;;;;;;;22.89;44.85;101914.19;5051934;28;20017;-61
2022/05/21 00:11:57;;;;;;;3.00;1.30;;;;;;;22.88;44.47;101900.06;5052457;28;20028;-61
2022/05/21 00:14:22;;;;;;;3.28;1.52;;;;;;;22.88;44.86;101905.38;5052608;28;20286;-60
2022/05/21 00:16:50;;;;;;;3.80;1.65;;;;;;;22.88;44.48;101913.34;5051811;28;20119;-61
2022/05/21 00:19:16;;;;;;;3.63;1.48;;;;;;;22.87;44.64;101905.50;5052827;28;20082;-60
2022/05/21 00:21:41;;;;;;;3.60;1.55;;;;;;;22.87;44.55;101909.00;5052802;28;20021;-62
2022/05/21 00:24:06;;;;;;;3.80;1.50;;;;;;;22.86;44.40;101907.31;5051328;28;20045;-61
2022/05/21 00:26:32;;;;;;;2.65;1.40;;;;;;;22.85;44.76;101913.59;5052648;28;20094;-61
2022/05/21 00:28:57;;;;;;;3.85;1.52;;;;;;;22.84;44.54;101911.91;5052370;28;20025;-61
2022/05/21 00:31:23;;;;;;;3.67;1.52;;;;;;;22.83;44.75;101913.72;5054759;28;20033;-61
2022/05/21 00:33:48;;;;;;;2.92;1.52;;;;;;;22.81;44.84;101904.19;5056487;28;20494;-61
2022/05/21 00:36:14;;;;;;;3.50;1.70;;;;;;;22.82;44.19;101912.03;5056795;28;20025;-60
2022/05/21 00:38:40;;;;;;;3.70;1.42;;;;;;;22.81;44.70;101913.03;5055916;28;20024;-61
2022/05/21 00:41:08;;;;;;;2.33;1.13;;;;;;;22.80;44.53;101918.47;5056272;28;20025;-60
2022/05/21 00:43:42;;;;;;;2.83;1.48;;;;;;;22.79;44.55;101917.63;5055732;28;20027;-61
2022/05/21 00:46:19;;;;;;;2.92;1.50;;;;;;;22.81;44.21;101925.47;5056188;28;20119;-61
2022/05/21 00:48:53;;;;;;;2.88;1.35;;;;;;;22.79;44.59;101914.13;5056528;28;20029;-61
2022/05/21 00:51:23;;;;;;;3.85;1.50;;;;;;;22.78;44.50;101921.25;5055727;28;20029;-61
2022/05/21 00:53:52;;;;;;;3.53;1.50;;;;;;;22.79;44.63;101922.94;5056018;28;20082;-60
2022/05/21 00:56:20;;;;;;;3.22;1.60;;;;;;;22.76;44.63;101920.53;5056221;28;20071;-60
2022/05/21 01:01:34;;;;;;;3.55;1.52;;;;;;;22.76;44.41;101917.88;5056717;28;20379;-60
2022/05/21 01:03:59;;;;;;;3.05;1.60;;;;;;;22.75;44.26;101915.38;5055892;28;20025;-60
2022/05/21 01:06:24;;;;;;;3.45;1.65;;;;;;;22.76;44.45;101919.69;5055281;28;20132;-60
2022/05/21 01:08:50;;;;;;;3.53;1.40;;;;;;;22.76;44.51;101922.34;5055534;28;20479;-60
2022/05/21 01:11:17;;;;;;;4.22;1.80;;;;;;;22.75;44.56;101916.22;5056184;28;20031;-62
2022/05/21 01:13:45;;;;;;;2.35;1.30;;;;;;;22.74;44.45;101911.84;5055229;28;20024;-61
2022/05/21 01:16:11;;;;;;;3.28;1.40;;;;;;;22.74;44.24;101916.34;5055661;28;20037;-61
2022/05/21 01:18:40;;;;;;;2.90;1.30;;;;;;;22.73;44.24;101912.84;5055559;28;20109;-61
2022/05/21 01:21:07;;;;;;;2.20;1.10;;;;;;;22.73;44.27;101915.50;5055549;28;20070;-61
2022/05/21 01:23:32;;;;;;;3.75;1.42;;;;;;;22.74;44.63;101916.34;5055530;28;20045;-61
2022/05/21 01:26:00;;;;;;;3.08;1.38;;;;;;;22.73;44.66;101911.97;5054777;28;20025;-61
2022/05/21 01:28:27;;;;;;;2.95;1.50;;;;;;;22.73;44.52;101914.63;5055854;28;20093;-61
2022/05/21 01:30:58;;;;;;;3.63;1.50;;;;;;;22.72;44.29;101908.50;5055345;28;20388;-61
2022/05/21 01:33:26;;;;;;;3.22;1.48;;;;;;;22.71;44.17;101905.97;5054765;28;20044;-61
2022/05/21 01:35:54;;;;;;;2.58;1.10;;;;;;;22.71;44.37;101906.78;5055470;28;20032;-61
2022/05/21 01:38:22;;;;;;;4.57;1.30;;;;;;;22.70;44.04;101910.44;5055526;28;20025;-61
2022/05/21 01:40:47;;;;;;;2.70;1.30;;;;;;;22.70;44.48;101902.47;5054705;28;20029;-61
2022/05/21 01:46:00;;;;;;;3.65;1.40;;;;;;;22.70;44.56;101899.81;5055224;28;20036;-61
2022/05/21 01:48:28;;;;;;;2.88;1.30;;;;;;;22.68;44.03;101896.41;5054418;28;20025;-61
2022/05/21 01:50:55;;;;;;;2.88;1.30;;;;;;;22.70;44.10;101898.94;5055052;28;20039;-60
2022/05/21 01:53:22;;;;;;;2.70;1.20;;;;;;;22.69;44.17;101900.78;5055166;28;20509;-61
2022/05/21 01:55:51;;;;;;;3.35;1.30;;;;;;;22.69;44.10;101899.94;5054425;28;20154;-61
2022/05/21 01:58:18;;;;;;;3.42;1.40;;;;;;;22.68;44.06;101904.41;5055102;28;20029;-61
2022/05/21 02:00:44;;;;;;;2.83;1.40;;;;;;;22.68;44.26;101907.06;5055119;28;20028;-61
2022/05/21 02:03:12;;;;;;;3.05;1.30;;;;;;;22.67;44.05;101900.06;5053970;28;20047;-61
2022/05/21 02:05:38;;;;;;;2.88;1.50;;;;;;;22.68;44.44;101899.09;5055014;28;20032;-61
2022/05/21 02:08:04;;;;;;;2.90;1.30;;;;;;;22.67;43.98;101913.34;5054031;28;20184;-61
2022/05/21 02:10:30;;;;;;;3.03;1.20;;;;;;;22.67;44.36;101905.38;5054965;28;20020;-61
2022/05/21 02:12:55;;;;;;;3.08;1.35;;;;;;;22.67;44.15;101909.84;5054443;28;20404;-61
2022/05/21 02:15:21;;;;;;;3.10;1.30;;;;;;;22.66;44.25;101906.34;5053939;28;20025;-60
2022/05/21 02:17:46;;;;;;;3.10;1.33;;;;;;;22.65;44.28;101912.63;5054593;28;20056;-60
2022/05/21 02:20:12;;;;;;;3.05;1.40;;;;;;;22.64;44.05;101914.44;5054552;28;20097;-61
2022/05/21 02:22:37;;;;;;;3.30;1.20;;;;;;;22.66;43.83;101921.47;5053934;28;20053;-61
2022/05/21 02:25:08;;;;;;;3.40;1.50;;;;;;;22.65;43.93;101912.63;5054149;28;20056;-61
2022/05/21 02:27:36;;;;;;;3.10;1.42;;;;;;;22.66;44.15;101914.31;5054642;28;20021;-61
2022/05/21 02:30:03;;;;;;;2.85;1.20;;;;;;;22.66;44.21;101916.13;5053575;28;20060;-60
2022/05/21 02:32:28;;;;;;;4.32;1.40;;;;;;;22.63;44.08;101910.09;5054381;28;20044;-61
2022/05/21 02:34:53;;;;;;;3.77;1.47;;;;;;;22.63;44.39;101915.41;5054250;28;20454;-61
2022/05/21 02:40:04;;;;;;;3.22;1.30;;;;;;;22.62;43.95;101895.13;5054350;28;20320;-61
2022/05/21 02:42:48;;;;;;;4.18;1.48;;;;;;;22.62;44.16;101907.56;5054178;28;20113;-61
2022/05/21 02:45:18;;;;;;;;;;;;;;;22.63;43.94;101898.63;5054072;28;20039;-61
2022/05/21 02:47:44;;;;;;;3.70;1.25;;;;;;;22.63;44.25;101917.22;5054339;28;19964;-61
2022/05/21 02:50:11;;;;;;;2.80;1.20;;;;;;;22.61;44.33;101916.53;5053185;28;20060;-61
2022/05/21 02:52:36;;;;;;;3.65;1.30;;;;;;;22.61;44.23;101917.34;5053901;28;20439;-61
2022/05/21 02:55:03;;;;;;;2.92;1.30;;;;;;;22.61;44.34;101916.53;5053684;28;20021;-60
2022/05/21 02:57:31;;;;;;;3.28;1.40;;;;;;;22.60;43.97;101912.16;5053140;28;20091;-60
2022/05/21 03:00:00;;;;;;;3.53;1.20;;;;;;;22.60;43.83;101906.84;5053914;28;20391;-60
2022/05/21 03:02:28;;;;;;;4.47;1.40;;;;;;;22.58;43.90;101912.31;5053899;28;20021;-61
2022/05/21 03:04:54;;;;;;;2.90;1.30;;;;;;;22.60;44.04;101913.00;5052827;28;20105;-61
2022/05/21 03:07:19;;;;;;;3.30;1.27;;;;;;;22.59;44.24;101918.47;5053920;28;20111;-61
2022/05/21 03:12:28;;;;;;;4.50;1.30;;;;;;;22.59;44.25;101918.47;5053069;28;20035;-61
2022/05/21 03:14:54;;;;;;;4.00;1.27;;;;;;;22.59;43.95;101923.78;5053375;28;20377;-60
2022/05/21 03:17:19;;;;;;;3.60;1.23;;;;;;;22.58;44.17;101912.31;5053581;28;20078;-61
2022/05/21 03:19:44;;;;;;;3.22;1.27;;;;;;;22.58;43.83;101912.31;5052769;28;20293;-60
2022/05/21 03:22:09;;;;;;;2.88;1.10;;;;;;;22.59;44.15;101907.84;5052933;28;20112;-60
2022/05/21 03:24:35;;;;;;;1.97;0.90;;;;;;;22.57;44.04;101912.44;5053450;28;20032;-60
2022/05/21 03:27:00;;;;;;;2.50;1.00;;;;;;;22.58;43.84;101911.47;5052588;28;20025;-60
2022/05/21 03:29:26;;;;;;;3.03;1.40;;;;;;;22.58;44.03;101911.47;5053459;28;20378;-61
2022/05/21 03:31:54;;;;;;;3.10;1.30;;;;;;;22.58;43.82;101911.47;5052911;28;20153;-61
2022/05/21 03:34:20;;;;;;;2.53;0.98;;;;;;;22.57;44.02;101918.59;5052438;28;20032;-60
2022/05/21 03:36:45;;;;;;;3.20;1.20;;;;;;;22.57;43.83;101910.63;5053157;28;20028;-61
2022/05/21 03:39:10;;;;;;;3.55;1.23;;;;;;;22.57;43.83;101915.09;5052820;28;20048;-61
2022/05/21 03:41:36;;;;;;;3.70;1.23;;;;;;;22.57;43.94;101920.41;5052603;28;20044;-61
2022/05/21 03:44:02;;;;;;;4.68;1.33;;;;;;;22.57;44.09;101917.75;5052758;28;20461;-61
2022/05/21 03:46:28;;;;;;;2.72;1.10;;;;;;;22.56;43.66;101924.03;5052756;28;20115;-61
2022/05/21 03:48:53;;;;;;;5.05;2.72;;;;;;;22.55;44.24;101923.19;5052805;28;20109;-61
2022/05/21 03:51:19;;;;;;;4.25;1.30;;;;;;;22.55;44.00;101923.19;5053037;28;20370;-61
2022/05/21 03:53:44;;;;;;;2.97;1.27;;;;;;;22.55;44.19;101922.34;5052194;28;20552;-61
2022/05/21 03:56:09;;;;;;;4.43;1.40;;;;;;;22.56;44.04;101926.69;5052795;28;20039;-61
2022/05/21 03:58:35;;;;;;;4.03;1.40;;;;;;;22.55;44.07;101932.97;5052770;28;20749;-61
2022/05/21 04:01:00;;;;;;;3.25;1.27;;;;;;;22.55;43.90;101932.97;5051766;28;20021;-60
2022/05/21 04:03:26;;;;;;;3.97;1.20;;;;;;;22.54;44.04;101936.59;5052836;28;20465;-60
2022/05/21 04:05:57;;;;;;;3.13;1.42;;;;;;;22.53;44.15;101932.28;5051865;28;20055;-60
2022/05/21 04:08:24;;;;;;;3.83;1.52;;;;;;;22.54;44.26;101939.25;5052037;28;20024;-60
2022/05/21 04:10:50;;;;;;;3.78;1.33;;;;;;;22.53;44.12;101934.94;5052552;28;20029;-61
2022/05/21 04:13:16;;;;;;;3.60;1.40;;;;;;;22.54;43.85;101942.75;5052596;28;20036;-61
2022/05/21 04:15:41;;;;;;;5.18;1.38;;;;;;;22.54;44.07;101937.44;5051793;28;20021;-61
2022/05/21 04:18:07;;;;;;;4.38;1.70;;;;;;;22.53;43.82;101942.88;5052120;28;20108;-61
2022/05/21 04:20:33;;;;;;;3.65;1.40;;;;;;;22.54;44.00;101944.56;5052444;28;20048;-60
2022/05/21 04:22:58;;;;;;;3.90;1.27;;;;;;;22.52;43.88;101941.19;5051459;28;20079;-60
2022/05/21 04:25:24;;;;;;;4.20;1.50;;;;;;;22.53;43.68;101949.03;5052651;28;20071;-60
2022/05/21 04:27:50;;;;;;;2.95;1.30;;;;;;;22.53;44.18;101948.19;5052454;28;20036;-61
2022/05/21 04:30:19;;;;;;;3.05;1.17;;;;;;;22.52;43.80;101942.03;5051819;28;20026;-61
2022/05/21 04:32:45;;;;;;;3.78;1.20;;;;;;;22.51;43.73;101955.44;5052559;28;20021;-61
2022/05/21 04:35:11;;;;;;;4.80;1.50;;;;;;;22.51;44.02;101953.66;5052008;28;20029;-60
2022/05/21 04:37:37;;;;;;;3.80;1.40;;;;;;;22.51;44.01;101955.44;5051835;28;20036;-61
2022/05/21 04:40:08;;;;;;;4.30;1.48;;;;;;;22.50;43.97;101957.25;5052259;28;20021;-61
2022/05/21 04:42:34;;;;;;;4.65;1.45;;;;;;;22.51;44.07;101958.09;5052176;28;20109;-61
2022/05/21 04:44:59;;;;;;;3.58;1.30;;;;;;;22.50;44.13;101959.91;5051881;28;20116;-61
2022/05/21 04:47:24;;;;;;;4.77;1.57;;;;;;;22.50;43.83;101969.72;5052107;28;20108;-61
2022/05/21 04:49:49;;;;;;;4.22;1.50;;;;;;;22.50;43.80;101961.75;5050897;28;20053;-61
2022/05/21 04:52:15;;;;;;;4.27;1.37;;;;;;;22.49;43.95;101958.22;5052271;28;20361;-61
2022/05/21 04:54:40;;;;;;;5.25;1.65;;;;;;;22.49;43.52;101965.34;5052216;28;20507;-60
2022/05/21 04:57:08;;;;;;;4.07;1.70;;;;;;;22.49;44.00;101968.84;5050970;28;20025;-60
2022/05/21 04:59:34;;;;;;;3.33;1.48;;;;;;;22.50;44.07;101967.06;5051907;28;20288;-60
2022/05/21 05:01:59;;;;;;;3.95;1.60;;;;;;;22.48;43.88;101966.31;5051491;28;20021;-60
2022/05/21 05:04:25;;;;;;;5.10;1.77;;;;;;;22.50;44.03;101964.41;5051241;28;20017;-61
2022/05/21 05:06:50;;;;;;;5.35;1.70;;;;;;;22.49;44.05;101970.66;5052018;28;20021;-62
2022/05/21 05:09:19;;;;;;;3.83;1.45;;;;;;;22.49;43.78;101968.00;5052241;28;20032;-61
2022/05/21 05:11:45;;;;;;;3.50;1.60;;;;;;;22.49;43.97;101973.31;5051465;28;20048;-61
2022/05/21 05:14:10;;;;;;;4.00;1.70;;;;;;;22.50;43.76;101980.34;5051683;28;20485;-61
2022/05/21 05:16:35;;;;;;;3.30;1.50;;;;;;;22.49;44.16;101975.97;5053644;28;20033;-61
2022/05/21 05:19:00;;;;;;;3.70;1.58;;;;;;;22.48;43.97;101977.81;5054567;28;20738;-61
2022/05/21 05:21:26;;;;;;;4.13;1.57;;;;;;;22.47;44.06;101984.06;5055966;28;20087;-62
2022/05/21 05:23:54;;;;;;;5.43;1.90;;;;;;;22.46;43.93;101982.38;5055307;28;20292;-61
2022/05/21 05:26:19;;;;;;;4.65;1.70;;;;;;;22.48;44.17;101980.47;5055062;28;20021;-60
2022/05/21 05:28:45;;;;;;;4.00;1.58;;;;;;;22.47;43.75;101989.38;5055924;28;20017;-60
2022/05/21 05:31:10;;;;;;;5.57;1.85;;;;;;;22.47;43.96;101989.38;5055490;28;20028;-60
2022/05/21 05:33:35;;;;;;;4.72;1.88;;;;;;;22.46;43.83;101988.56;5054633;28;20024;-61
2022/05/21 05:36:00;;;;;;;3.80;1.80;;;;;;;22.45;44.16;101992.16;5055436;28;20025;-60
2022/05/21 05:38:26;;;;;;;4.57;1.98;;;;;;;22.47;43.86;101994.69;5055605;28;20024;-63
2022/05/21 05:40:52;;;;;;;6.28;2.00;;;;;;;22.44;43.81;101992.28;5054398;28;20492;-61
2022/05/21 05:43:20;;;;;;;4.10;1.88;;;;;;;22.43;44.31;101988.81;5055390;28;20469;-61
2022/05/21 05:45:48;;;;;;;6.30;2.20;;;;;;;22.41;44.68;101993.41;5055356;28;20021;-62
2022/05/21 05:48:13;;;;;;;4.10;1.88;;;;;;;22.44;44.44;102002.91;5054313;28;20025;-61
2022/05/21 05:50:38;;;;;;;7.33;2.17;;;;;;;22.45;44.65;102008.09;5055170;28;20028;-63
2022/05/21 05:53:05;;;;;;;4.75;2.10;;;;;;;22.48;44.61;102007.03;5054342;28;20274;-64
2022/05/21 05:55:32;;;;;;;4.65;2.03;;;;;;;22.49;44.87;101995.41;5054996;28;20473;-59
2022/05/21 05:57:58;;;;;;;5.55;2.35;;;;;;;22.48;44.05;102001.72;5054858;28;20032;-60
2022/05/21 06:00:24;;;;;;;5.57;2.33;;;;;;;22.50;44.76;101996.28;5054577;28;20021;-59
2022/05/21 06:02:58;;;;;;;5.57;2.10;;;;;;;22.49;45.09;102002.53;5054456;28;20481;-61
2022/05/21 06:05:24;;;;;;;6.50;2.28;;;;;;;22.48;44.87;102003.50;5054940;28;20029;-61
2022/05/21 06:07:56;;;;;;;6.28;2.33;;;;;;;22.49;45.13;102010.50;5053763;28;20104;-58
2022/05/21 06:10:29;;;;;;;5.38;2.40;;;;;;;22.49;44.88;102006.03;5054656;28;20104;-60
2022/05/21 06:12:55;;;;;;;4.43;2.03;;;;;;;22.48;44.99;102001.72;5054325;28;20031;-60
2022/05/21 06:15:21;;;;;;;5.80;2.42;;;;;;;22.51;45.45;102011.22;5053817;28;20112;-61
2022/05/21 06:17:46;;;;;;;5.78;2.05;;;;;;;22.53;45.31;102010.13;5054598;28;20048;-64
2022/05/21 06:20:14;;;;;;;5.47;2.10;;;;;;;22.54;45.25;102013.63;5054420;28;20017;-60
2022/05/21 06:22:41;;;;;;;5.70;2.42;;;;;;;22.55;45.23;102018.81;5053623;28;20091;-60
2022/05/21 06:25:26;;;;;;;6.00;2.25;;;;;;;22.56;44.79;102015.19;5054028;28;20211;-60
2022/05/21 06:27:52;;;;;;;;;;;;;;;22.57;45.12;102024.00;5053933;28;20029;-61
2022/05/21 06:30:20;;;;;;;6.70;2.50;;;;;;;22.55;45.43;102018.81;5053785;28;19917;-60
2022/05/21 06:32:49;;;;;;;6.70;2.72;;;;;;;22.55;45.02;102018.81;5054745;28;20056;-60
2022/05/21 06:35:17;;;;;;;4.57;2.40;;;;;;;22.57;45.02;102026.66;5053546;28;20032;-61
2022/05/21 06:37:42;;;;;;;6.18;2.60;;;;;;;22.58;45.09;102023.03;5054282;28;20036;-60
2022/05/21 06:40:10;;;;;;;5.72;2.50;;;;;;;22.58;45.21;102023.03;5053811;28;20490;-59
2022/05/21 06:42:38;;;;;;;9.10;3.13;;;;;;;22.57;45.02;102026.66;5053280;28;20030;-60
2022/05/21 06:45:04;;;;;;;7.75;3.20;;;;;;;22.57;45.01;102026.66;5053798;28;20032;-61
2022/05/21 06:47:30;;;;;;;6.57;3.08;;;;;;;22.58;44.95;102031.00;5053959;28;20024;-60
2022/05/21 06:49:56;;;;;;;4.47;2.40;;;;;;;22.59;45.20;102041.50;5052963;28;20066;-60
2022/05/21 06:52:24;;;;;;;5.30;2.65;;;;;;;22.60;45.22;102043.19;5053743;28;20305;-60
2022/05/21 06:54:49;;;;;;;6.28;3.10;;;;;;;22.57;45.54;102034.63;5053288;28;20029;-60
2022/05/21 06:57:14;;;;;;;6.78;3.00;;;;;;;22.58;45.62;102041.63;5052958;28;20033;-60
2022/05/21 06:59:40;;;;;;;6.72;3.47;;;;;;;22.57;45.35;102039.94;5053957;28;20070;-60
2022/05/21 07:02:08;;;;;;;6.78;3.00;;;;;;;22.58;45.22;102039.81;5053687;28;20025;-60
2022/05/21 07:07:32;;;;;;;6.43;3.00;;;;;;;22.60;45.19;102047.66;5054000;28;20044;-60
2022/05/21 07:10:00;;;;;;;7.03;3.50;;;;;;;22.60;45.43;102047.66;5053355;28;20033;-60
2022/05/21 07:12:25;;;;;;;6.18;3.03;;;;;;;22.61;45.67;102050.19;5052865;28;20029;-61
2022/05/21 07:14:53;;;;;;;5.75;3.53;;;;;;;22.60;45.43;102048.50;5052998;28;20430;-59
2022/05/21 07:17:19;;;;;;;6.75;3.45;;;;;;;22.63;45.69;102058.03;5052943;28;20033;-60
2022/05/21 07:19:44;;;;;;;6.53;3.22;;;;;;;22.63;45.19;102061.53;5052234;28;20033;-61
2022/05/21 07:22:10;;;;;;;5.45;3.35;;;;;;;22.62;45.06;102064.31;5052660;28;20029;-61
2022/05/21 07:24:39;;;;;;;8.52;3.75;;;;;;;22.61;45.48;102065.31;5052656;28;20021;-60
2022/05/21 07:27:05;;;;;;;10.10;3.85;;;;;;;22.57;44.25;102067.38;5053171;28;20028;-61
2022/05/21 07:29:30;;;;;;;8.23;3.93;;;;;;;22.56;44.49;102067.50;5053163;28;20365;-60
2022/05/21 07:31:55;;;;;;;6.93;3.65;;;;;;;22.53;45.23;102073.88;5052067;28;20284;-63
2022/05/21 07:34:21;;;;;;;9.30;3.80;;;;;;;22.50;45.64;102070.66;5054438;28;20029;-61
2022/05/21 07:36:47;;;;;;;6.90;4.20;;;;;;;22.46;46.00;102073.56;5053790;28;20029;-62
2022/05/21 07:39:12;;;;;;;7.25;3.70;;;;;;;22.43;46.22;102075.59;5052108;28;20370;-63
2022/05/21 07:41:37;;;;;;;9.27;3.80;;;;;;;22.45;45.92;102076.31;5053348;28;20025;-65
2022/05/21 07:44:03;;;;;;;11.45;3.70;;;;;;;22.48;46.32;102075.22;5052869;28;20103;-64
2022/05/21 07:46:28;;;;;;;8.65;3.47;;;;;;;22.50;46.18;102070.66;5053178;28;20132;-64
2022/05/21 07:48:56;;;;;;;7.85;3.67;;;;;;;22.53;46.05;102071.22;5053478;28;20078;-63
2022/05/21 07:51:21;;;;;;;8.45;3.60;;;;;;;22.55;45.68;102073.78;5054407;28;20534;-62
2022/05/21 07:53:52;;;;;;;6.73;3.60;;;;;;;22.57;46.23;102074.47;5052657;28;20053;-63
2022/05/21 07:56:18;;;;;;;9.27;4.53;;;;;;;22.60;46.10;102069.75;5053095;28;20772;-62
2022/05/21 07:58:44;;;;;;;8.75;4.13;;;;;;;22.65;45.73;102074.69;5053999;28;20025;-62
2022/05/21 08:01:10;;;;;;;5.30;3.50;;;;;;;22.70;45.53;102075.19;5050890;28;20045;-59
2022/05/21 08:03:35;;;;;;;7.72;3.45;;;;;;;22.71;45.50;102076.84;5052729;28;20033;-61
2022/05/21 08:06:09;;;;;;;7.13;3.75;;;;;;;22.71;45.50;102082.16;5056639;28;20044;-63
2022/05/21 08:08:35;;;;;;;6.88;3.65;;;;;;;22.72;45.53;102077.72;5056300;28;20027;-61
2022/05/21 08:11:03;;;;;;;8.48;3.70;;;;;;;22.74;45.78;102095.22;5052397;28;20410;-61
2022/05/21 08:13:29;;;;;;;8.15;3.40;;;;;;;22.76;45.57;102093.25;5052606;28;20112;-62
2022/05/21 08:15:54;;;;;;;6.70;3.37;;;;;;;22.86;45.39;102092.50;5051691;28;20103;-62
2022/05/21 08:18:19;;;;;;;6.90;3.50;;;;;;;22.89;44.84;102090.47;5053853;28;20266;-62
2022/05/21 08:20:45;;;;;;;8.07;3.97;;;;;;;22.94;44.82;102095.38;5052577;28;20471;-62
2022/05/21 08:28:47;;;;;;;8.43;4.03;;;;;;;22.93;44.92;102097.19;5052117;28;20504;-64
2022/05/21 08:31:13;;;;;;;7.53;3.58;;;;;;;22.95;45.33;102086.44;5053203;28;20381;-63
2022/05/21 08:33:38;;;;;;;7.85;3.78;;;;;;;22.99;45.23;102095.88;5052995;28;20024;-65
2022/05/21 08:36:04;;;;;;;9.00;3.50;;;;;;;23.01;44.71;102093.91;5051824;28;20037;-63
2022/05/21 08:38:29;;;;;;;9.50;3.92;;;;;;;23.04;44.72;102093.66;5053825;28;20029;-63
2022/05/21 08:41:03;;;;;;;9.73;3.88;;;;;;;23.05;44.98;102100.69;5052091;28;20473;-62
2022/05/21 08:43:47;;;;;;;7.40;4.05;;;;;;;23.05;44.65;102099.81;5051865;28;20021;-64
2022/05/21 08:46:57;;;;;;;8.65;3.88;;;;;;;23.06;44.68;102107.66;5053680;28;20121;-65
2022/05/21 08:49:50;;;;;;;8.95;4.10;;;;;;;23.07;45.01;102098.72;5052415;28;20029;-64
2022/05/21 08:52:43;;;;;;;9.25;3.97;;;;;;;23.12;44.81;102093.06;5057011;28;20047;-62
2022/05/21 08:55:11;;;;;;;6.68;3.88;;;;;;;23.11;44.74;102102.84;5057094;28;20862;-64
2022/05/21 08:58:28;;;;;;;12.25;3.97;;;;;;;23.17;44.56;102090.84;5055367;28;20473;-66
2022/05/21 09:00:55;;;;;;;8.88;3.97;;;;;;;23.17;44.79;102090.84;4975245;28;20062;-74
2022/05/21 09:03:23;;;;;;;10.38;4.05;;;;;;;23.24;44.96;102091.19;5048033;28;20043;-70
2022/05/21 09:06:02;;;;;;;10.25;3.80;;;;;;;23.31;44.33;102089.72;5056902;28;20031;-73
2022/05/21 09:08:47;;;;;;;10.23;4.25;;;;;;;23.31;44.57;102095.03;5058196;28;20117;-74
2022/05/21 09:11:17;;;;;;;8.00;3.92;;;;;;;23.25;44.54;102091.06;5057525;28;20400;-71
2022/05/21 09:14:10;;;;;;;8.80;3.75;;;;;;;23.27;44.21;102091.75;5058520;28;20116;-75
2022/05/21 09:16:55;;;;;;;8.05;4.00;;;;;;;23.29;44.23;102087.19;5057154;28;20040;-73
2022/05/21 09:19:35;;;;;;;5.70;3.63;;;;;;;23.29;44.43;102089.84;5057321;28;20063;-73
2022/05/21 09:22:07;;;;;;;6.78;3.70;;;;;;;23.27;44.24;102074.97;5056308;28;20028;-69
2022/05/21 09:24:47;;;;;;;8.30;3.53;;;;;;;23.25;44.31;102074.25;5055516;28;20037;-70
2022/05/21 09:27:36;;;;;;;10.07;3.75;;;;;;;23.20;44.62;102072.00;5056351;28;20029;-69
2022/05/21 09:30:22;;;;;;;7.13;3.67;;;;;;;23.23;44.40;102077.06;5056813;28;20025;-67
2022/05/21 09:32:53;;;;;;;11.18;4.15;;;;;;;23.17;44.83;102077.56;5055062;28;20032;-66
2022/05/21 09:35:23;;;;;;;6.78;3.72;;;;;;;23.09;44.78;102075.53;5055627;28;20025;-64
2022/05/21 09:37:49;;;;;;;11.25;4.18;;;;;;;23.04;45.02;102072.41;5056131;28;20086;-64
2022/05/21 09:40:23;;;;;;;11.30;4.20;;;;;;;23.02;45.28;102079.66;5057767;28;20017;-62
2022/05/21 09:45:34;;;;;;;;;;;;;;;22.98;44.99;102086.19;5056841;28;20089;-64
2022/05/21 09:48:05;;;;;;;6.13;3.25;;;;;;;22.94;45.07;102087.41;5055475;28;19972;-65
2022/05/21 09:50:42;;;;;;;6.93;3.20;;;;;;;22.90;45.52;102086.81;5055252;28;20505;-65
2022/05/21 09:53:44;;;;;;;6.75;3.17;;;;;;;22.86;45.33;102090.72;5054236;28;20029;-63
2022/05/21 09:56:20;;;;;;;5.50;3.22;;;;;;;22.80;45.81;102091.22;5054910;28;20083;-63
2022/05/21 09:58:51;;;;;;;5.55;3.10;;;;;;;22.77;46.01;102100.28;5055434;28;20104;-63
2022/05/21 10:01:36;;;;;;;7.50;3.20;;;;;;;22.74;45.92;102089.88;5054502;28;20129;-62
2022/05/21 10:04:11;;;;;;;8.93;3.20;;;;;;;22.73;45.97;102095.31;5053885;28;20025;-61
2022/05/21 10:06:46;;;;;;;5.80;3.03;;;;;;;22.71;46.27;102092.78;5054219;28;20029;-62
2022/05/21 10:12:32;;;;;;;9.07;3.25;;;;;;;22.68;46.49;102098.34;5055394;28;20484;-60
2022/05/21 10:15:12;;;;;;;9.63;3.42;;;;;;;22.68;46.08;102102.84;5053913;28;20122;-63
2022/05/21 10:17:41;;;;;;;9.63;3.67;;;;;;;22.64;46.24;102100.44;5055026;28;20060;-64
2022/05/21 10:20:43;;;;;;;6.88;3.20;;;;;;;22.66;46.58;102094.16;5054513;28;20024;-63
2022/05/21 10:23:30;;;;;;;8.70;3.95;;;;;;;22.64;46.37;102097.78;5054728;28;20045;-62
2022/05/21 10:26:14;;;;;;;8.63;3.80;;;;;;;22.67;46.34;102101.13;5056173;28;20033;-64
2022/05/21 10:29:01;;;;;;;6.65;3.38;;;;;;;22.69;46.10;102101.88;5056115;28;20483;-60
2022/05/21 10:32:01;;;;;;;7.30;3.60;;;;;;;22.71;45.96;102102.59;5055156;28;20511;-65
2022/05/21 10:34:44;;;;;;;9.13;3.80;;;;;;;22.75;46.05;102096.06;5054962;28;20495;-61
2022/05/21 10:37:31;;;;;;;7.05;3.50;;;;;;;22.75;46.25;102101.38;5054481;28;20166;-60
2022/05/21 10:40:24;;;;;;;7.13;3.40;;;;;;;22.74;46.63;102097.88;5054117;28;20359;-60
2022/05/21 10:43:08;;;;;;;5.60;3.30;;;;;;;22.74;46.34;102099.69;5053454;28;20029;-63
2022/05/21 10:45:40;;;;;;;5.88;3.30;;;;;;;22.73;46.30;102095.31;5054363;28;20025;-65
2022/05/21 10:48:24;;;;;;;7.45;3.42;;;;;;;22.70;46.45;102101.75;5053923;28;20446;-62
2022/05/21 10:51:00;;;;;;;6.30;3.30;;;;;;;22.70;46.54;102095.56;5054220;28;20120;-65
2022/05/21 10:53:44;;;;;;;5.63;3.17;;;;;;;22.69;46.56;102096.56;5053974;28;20365;-62
2022/05/21 10:56:29;;;;;;;6.05;3.10;;;;;;;22.68;46.46;102100.19;5053122;28;20080;-63
2022/05/21 10:59:22;;;;;;;7.10;3.20;;;;;;;22.69;46.89;102096.56;5054022;28;20025;-60
2022/05/21 11:02:16;;;;;;;6.18;3.42;;;;;;;22.67;47.05;102096.69;5054124;28;20040;-62
2022/05/21 11:05:32;;;;;;;6.53;3.25;;;;;;;22.68;47.03;102102.84;5053077;28;20388;-60
2022/05/21 11:08:28;;;;;;;6.78;3.38;;;;;;;22.67;46.62;102099.34;5053917;28;20110;-62
2022/05/21 11:11:25;;;;;;;7.45;3.28;;;;;;;22.70;46.93;102107.06;5054847;28;20024;-62
2022/05/21 11:14:16;;;;;;;8.05;3.42;;;;;;;22.72;46.50;102109.59;5054081;28;20129;-61
2022/05/21 11:16:52;;;;;;;10.80;3.20;;;;;;;22.76;46.68;102113.69;5054334;28;20037;-62
2022/05/21 11:19:47;;;;;;;9.18;3.08;;;;;;;22.79;46.30;102100.97;5055441;28;20021;-63
2022/05/21 11:22:19;;;;;;;10.40;3.55;;;;;;;22.83;46.31;102106.91;5056213;28;20039;-65
2022/05/21 11:24:56;;;;;;;7.38;3.05;;;;;;;22.87;46.29;102102.19;5054550;28;20025;-62
2022/05/21 11:27:26;;;;;;;8.27;3.38;;;;;;;22.90;46.11;102105.44;5054063;28;20107;-62
2022/05/21 11:30:00;;;;;;;8.90;3.40;;;;;;;22.93;46.25;102113.16;5053145;28;20094;-63
2022/05/21 11:38:36;;;;;;;6.13;2.65;;;;;;;22.99;45.59;102111.81;5052709;28;20397;-62
2022/05/21 11:43:52;;;;;;;12.30;2.95;;;;;;;23.04;45.31;102084.84;5054175;28;20088;-62
2022/05/21 11:46:18;;;;;;;8.25;2.83;;;;;;;23.05;45.69;102092.69;5052661;28;20389;-63
2022/05/21 11:48:46;;;;;;;6.28;2.88;;;;;;;23.08;45.41;102104.91;5054736;28;20021;-63
2022/05/21 11:51:17;;;;;;;9.70;2.72;;;;;;;23.11;45.76;102099.34;5051966;28;20044;-62
2022/05/21 11:53:45;;;;;;;6.70;2.90;;;;;;;23.11;45.42;102092.19;5052381;28;20025;-63
2022/05/21 11:56:12;;;;;;;7.47;2.88;;;;;;;23.13;45.46;102092.94;5053205;28;20388;-62
2022/05/21 11:58:50;;;;;;;7.30;2.85;;;;;;;23.16;45.27;102094.47;5052876;28;20028;-63
2022/05/21 12:01:38;;;;;;;7.07;2.90;;;;;;;23.16;45.59;102090.03;5053367;28;20021;-67
2022/05/21 12:04:03;;;;;;;7.45;2.95;;;;;;;23.18;45.54;102096.03;5053115;28;20029;-66
2022/05/21 12:06:40;;;;;;;6.97;2.85;;;;;;;23.21;45.71;102091.44;5052461;28;20025;-64
2022/05/21 12:09:26;;;;;;;4.90;2.72;;;;;;;23.22;45.76;102090.47;5054306;28;20021;-62
2022/05/21 12:12:22;;;;;;;8.43;2.88;;;;;;;23.27;45.84;102089.09;5053288;28;20021;-65
2022/05/21 12:15:16;;;;;;;6.93;3.17;;;;;;;23.31;45.85;102087.88;5052257;28;20657;-66
2022/05/21 12:18:02;;;;;;;6.22;2.80;;;;;;;23.35;46.22;102088.47;5053237;28;20033;-64